sensor_id;sensor_type;location;lat;lon;timestamp;P1;durP1;ratioP1;P2;durP2;ratioP2
19595;SDS011;9945;46.010;8.946;2024-03-29T00:01:55;3.30;;;3.10;;
19595;SDS011;9945;46.010;8.946;2024-03-29T00:04:21;4.10;;;3.80;;
19595;SDS011;9945;46.010;8.946;2024-03-29T00:06:47;4.10;;;3.70;;
19595;SDS011;9945;46.010;8.946;2024-03-29T00:09:14;4.23;;;3.83;;
19595;SDS011;9945;46.010;8.946;2024-03-29T00:11:40;4.10;;;3.70;;
19595;SDS011;9945;46.010;8.946;2024-03-29T00:14:06;3.77;;;3.40;;
19595;SDS011;9945;46.010;8.946;2024-03-29T00:16:32;3.90;;;3.60;;
19595;SDS011;9945;46.010;8.946;2024-03-29T00:18:58;4.67;;;4.27;;
19595;SDS011;9945;46.010;8.946;2024-03-29T00:21:24;3.80;;;3.33;;
19595;SDS011;9945;46.010;8.946;2024-03-29T00:23:50;3.87;;;3.33;;
19595;SDS011;9945;46.010;8.946;2024-03-29T00:26:17;3.17;;;2.97;;
19595;SDS011;9945;46.010;8.946;2024-03-29T00:28:43;3.90;;;3.60;;
19595;SDS011;9945;46.010;8.946;2024-03-29T00:31:09;3.73;;;3.43;;
19595;SDS011;9945;46.010;8.946;2024-03-29T00:33:35;4.03;;;3.73;;
19595;SDS011;9945;46.010;8.946;2024-03-29T00:36:01;3.33;;;3.13;;
19595;SDS011;9945;46.010;8.946;2024-03-29T00:38:27;3.67;;;3.37;;
19595;SDS011;9945;46.010;8.946;2024-03-29T00:40:52;3.73;;;3.50;;
19595;SDS011;9945;46.010;8.946;2024-03-29T00:43:20;3.97;;;3.50;;
19595;SDS011;9945;46.010;8.946;2024-03-29T00:45:46;4.00;;;3.70;;
19595;SDS011;9945;46.010;8.946;2024-03-29T00:48:12;3.87;;;3.57;;
19595;SDS011;9945;46.010;8.946;2024-03-29T00:50:38;4.20;;;3.90;;
19595;SDS011;9945;46.010;8.946;2024-03-29T00:53:04;4.53;;;4.13;;
19595;SDS011;9945;46.010;8.946;2024-03-29T00:55:30;6.13;;;4.17;;
19595;SDS011;9945;46.010;8.946;2024-03-29T00:57:56;4.77;;;4.30;;
19595;SDS011;9945;46.010;8.946;2024-03-29T01:00:23;5.00;;;4.50;;
19595;SDS011;9945;46.010;8.946;2024-03-29T01:02:49;3.80;;;3.60;;
19595;SDS011;9945;46.010;8.946;2024-03-29T01:05:15;4.40;;;4.10;;
19595;SDS011;9945;46.010;8.946;2024-03-29T01:07:41;4.47;;;4.17;;
19595;SDS011;9945;46.010;8.946;2024-03-29T01:10:07;4.27;;;3.97;;
19595;SDS011;9945;46.010;8.946;2024-03-29T01:12:34;4.37;;;4.00;;
19595;SDS011;9945;46.010;8.946;2024-03-29T01:15:00;4.10;;;3.80;;
19595;SDS011;9945;46.010;8.946;2024-03-29T01:17:28;4.33;;;4.00;;
19595;SDS011;9945;46.010;8.946;2024-03-29T01:19:54;4.53;;;4.23;;
19595;SDS011;9945;46.010;8.946;2024-03-29T01:22:20;4.70;;;3.73;;
19595;SDS011;9945;46.010;8.946;2024-03-29T01:24:45;4.20;;;3.77;;
19595;SDS011;9945;46.010;8.946;2024-03-29T01:27:12;4.20;;;3.90;;
19595;SDS011;9945;46.010;8.946;2024-03-29T01:29:38;5.53;;;3.93;;
19595;SDS011;9945;46.010;8.946;2024-03-29T01:32:04;4.43;;;4.03;;
19595;SDS011;9945;46.010;8.946;2024-03-29T01:34:32;4.10;;;3.90;;
19595;SDS011;9945;46.010;8.946;2024-03-29T01:36:58;4.10;;;3.90;;
19595;SDS011;9945;46.010;8.946;2024-03-29T01:39:24;4.63;;;4.23;;
19595;SDS011;9945;46.010;8.946;2024-03-29T01:41:50;3.87;;;3.57;;
19595;SDS011;9945;46.010;8.946;2024-03-29T01:44:16;4.60;;;4.30;;
19595;SDS011;9945;46.010;8.946;2024-03-29T01:46:42;4.27;;;3.97;;
19595;SDS011;9945;46.010;8.946;2024-03-29T01:49:10;5.67;;;3.90;;
19595;SDS011;9945;46.010;8.946;2024-03-29T01:51:39;7.87;;;3.70;;
19595;SDS011;9945;46.010;8.946;2024-03-29T01:54:07;4.13;;;3.83;;
19595;SDS011;9945;46.010;8.946;2024-03-29T01:56:35;4.13;;;3.63;;
19595;SDS011;9945;46.010;8.946;2024-03-29T01:59:03;3.83;;;3.60;;
19595;SDS011;9945;46.010;8.946;2024-03-29T02:01:31;3.73;;;3.40;;
19595;SDS011;9945;46.010;8.946;2024-03-29T02:03:58;4.07;;;3.00;;
19595;SDS011;9945;46.010;8.946;2024-03-29T02:06:25;3.57;;;3.27;;
19595;SDS011;9945;46.010;8.946;2024-03-29T02:08:54;3.77;;;3.47;;
19595;SDS011;9945;46.010;8.946;2024-03-29T02:11:20;6.87;;;3.07;;
19595;SDS011;9945;46.010;8.946;2024-03-29T02:13:47;2.83;;;2.53;;
19595;SDS011;9945;46.010;8.946;2024-03-29T02:16:15;2.67;;;2.33;;
19595;SDS011;9945;46.010;8.946;2024-03-29T02:18:42;4.80;;;2.37;;
19595;SDS011;9945;46.010;8.946;2024-03-29T02:21:09;6.60;;;2.70;;
19595;SDS011;9945;46.010;8.946;2024-03-29T02:23:37;3.93;;;3.43;;
19595;SDS011;9945;46.010;8.946;2024-03-29T02:26:08;3.37;;;3.17;;
19595;SDS011;9945;46.010;8.946;2024-03-29T02:28:35;3.93;;;3.70;;
19595;SDS011;9945;46.010;8.946;2024-03-29T02:31:01;4.57;;;3.87;;
19595;SDS011;9945;46.010;8.946;2024-03-29T02:33:29;4.20;;;3.77;;
19595;SDS011;9945;46.010;8.946;2024-03-29T02:35:55;3.70;;;3.40;;
19595;SDS011;9945;46.010;8.946;2024-03-29T02:38:22;5.67;;;3.70;;
19595;SDS011;9945;46.010;8.946;2024-03-29T02:40:49;4.40;;;3.50;;
19595;SDS011;9945;46.010;8.946;2024-03-29T02:43:17;3.83;;;3.53;;
19595;SDS011;9945;46.010;8.946;2024-03-29T02:45:44;3.20;;;3.00;;
19595;SDS011;9945;46.010;8.946;2024-03-29T02:48:11;3.83;;;3.63;;
19595;SDS011;9945;46.010;8.946;2024-03-29T02:50:38;3.93;;;3.63;;
19595;SDS011;9945;46.010;8.946;2024-03-29T02:53:04;3.77;;;3.47;;
19595;SDS011;9945;46.010;8.946;2024-03-29T02:55:33;4.57;;;3.30;;
19595;SDS011;9945;46.010;8.946;2024-03-29T02:57:59;3.43;;;3.13;;
19595;SDS011;9945;46.010;8.946;2024-03-29T03:00:27;3.70;;;3.40;;
19595;SDS011;9945;46.010;8.946;2024-03-29T03:02:53;3.70;;;3.50;;
19595;SDS011;9945;46.010;8.946;2024-03-29T03:05:20;3.47;;;3.27;;
19595;SDS011;9945;46.010;8.946;2024-03-29T03:07:46;3.00;;;2.80;;
19595;SDS011;9945;46.010;8.946;2024-03-29T03:10:30;4.13;;;2.93;;
19595;SDS011;9945;46.010;8.946;2024-03-29T03:13:14;3.60;;;3.20;;
19595;SDS011;9945;46.010;8.946;2024-03-29T03:15:42;3.30;;;3.10;;
19595;SDS011;9945;46.010;8.946;2024-03-29T03:18:08;3.10;;;2.90;;
19595;SDS011;9945;46.010;8.946;2024-03-29T03:20:35;3.30;;;3.10;;
19595;SDS011;9945;46.010;8.946;2024-03-29T03:23:03;3.30;;;3.10;;
19595;SDS011;9945;46.010;8.946;2024-03-29T03:25:30;3.70;;;3.40;;
19595;SDS011;9945;46.010;8.946;2024-03-29T03:27:56;3.50;;;3.20;;
19595;SDS011;9945;46.010;8.946;2024-03-29T03:30:22;3.23;;;3.00;;
19595;SDS011;9945;46.010;8.946;2024-03-29T03:32:50;6.37;;;3.30;;
19595;SDS011;9945;46.010;8.946;2024-03-29T03:35:17;3.90;;;3.10;;
19595;SDS011;9945;46.010;8.946;2024-03-29T03:37:42;3.23;;;2.90;;
19595;SDS011;9945;46.010;8.946;2024-03-29T03:40:09;3.67;;;2.90;;
19595;SDS011;9945;46.010;8.946;2024-03-29T03:42:36;3.00;;;2.80;;
19595;SDS011;9945;46.010;8.946;2024-03-29T03:45:03;3.03;;;2.83;;
19595;SDS011;9945;46.010;8.946;2024-03-29T03:47:29;3.10;;;2.90;;
19595;SDS011;9945;46.010;8.946;2024-03-29T03:49:57;2.93;;;2.73;;
19595;SDS011;9945;46.010;8.946;2024-03-29T03:52:23;2.80;;;2.60;;
19595;SDS011;9945;46.010;8.946;2024-03-29T03:54:50;2.40;;;2.30;;
19595;SDS011;9945;46.010;8.946;2024-03-29T03:57:16;2.83;;;2.10;;
19595;SDS011;9945;46.010;8.946;2024-03-29T03:59:43;2.77;;;2.60;;
19595;SDS011;9945;46.010;8.946;2024-03-29T04:02:08;2.40;;;2.30;;
19595;SDS011;9945;46.010;8.946;2024-03-29T04:04:36;2.67;;;2.47;;
19595;SDS011;9945;46.010;8.946;2024-03-29T04:07:03;2.67;;;2.47;;
19595;SDS011;9945;46.010;8.946;2024-03-29T04:09:30;2.40;;;2.30;;
19595;SDS011;9945;46.010;8.946;2024-03-29T04:11:56;2.43;;;2.23;;
19595;SDS011;9945;46.010;8.946;2024-03-29T04:14:23;5.27;;;2.50;;
19595;SDS011;9945;46.010;8.946;2024-03-29T04:16:49;3.00;;;2.80;;
19595;SDS011;9945;46.010;8.946;2024-03-29T04:19:16;2.80;;;2.60;;
19595;SDS011;9945;46.010;8.946;2024-03-29T04:21:41;3.00;;;2.80;;
19595;SDS011;9945;46.010;8.946;2024-03-29T04:24:10;2.90;;;2.60;;
19595;SDS011;9945;46.010;8.946;2024-03-29T04:26:36;2.83;;;2.30;;
19595;SDS011;9945;46.010;8.946;2024-03-29T04:29:03;2.60;;;2.40;;
19595;SDS011;9945;46.010;8.946;2024-03-29T04:31:29;2.90;;;2.70;;
19595;SDS011;9945;46.010;8.946;2024-03-29T04:33:56;2.50;;;2.40;;
19595;SDS011;9945;46.010;8.946;2024-03-29T04:36:22;2.80;;;2.60;;
19595;SDS011;9945;46.010;8.946;2024-03-29T04:38:49;2.33;;;2.23;;
19595;SDS011;9945;46.010;8.946;2024-03-29T04:41:18;2.60;;;2.50;;
19595;SDS011;9945;46.010;8.946;2024-03-29T04:43:44;2.57;;;2.47;;
19595;SDS011;9945;46.010;8.946;2024-03-29T04:46:13;3.13;;;2.93;;
19595;SDS011;9945;46.010;8.946;2024-03-29T04:48:41;3.23;;;2.63;;
19595;SDS011;9945;46.010;8.946;2024-03-29T04:51:08;4.90;;;2.63;;
19595;SDS011;9945;46.010;8.946;2024-03-29T04:53:36;2.93;;;2.73;;
19595;SDS011;9945;46.010;8.946;2024-03-29T04:56:03;2.77;;;2.57;;
19595;SDS011;9945;46.010;8.946;2024-03-29T04:58:32;2.73;;;2.53;;
19595;SDS011;9945;46.010;8.946;2024-03-29T05:00:59;2.80;;;2.60;;
19595;SDS011;9945;46.010;8.946;2024-03-29T05:03:26;2.70;;;2.60;;
19595;SDS011;9945;46.010;8.946;2024-03-29T05:05:53;3.10;;;2.90;;
19595;SDS011;9945;46.010;8.946;2024-03-29T05:08:20;3.20;;;2.57;;
19595;SDS011;9945;46.010;8.946;2024-03-29T05:10:47;4.10;;;3.60;;
19595;SDS011;9945;46.010;8.946;2024-03-29T05:13:15;3.10;;;2.80;;
19595;SDS011;9945;46.010;8.946;2024-03-29T05:15:43;3.10;;;2.77;;
19595;SDS011;9945;46.010;8.946;2024-03-29T05:18:10;2.77;;;2.57;;
19595;SDS011;9945;46.010;8.946;2024-03-29T05:20:41;4.43;;;4.10;;
19595;SDS011;9945;46.010;8.946;2024-03-29T05:23:12;3.50;;;3.17;;
19595;SDS011;9945;46.010;8.946;2024-03-29T05:25:39;2.87;;;2.57;;
19595;SDS011;9945;46.010;8.946;2024-03-29T05:28:06;2.67;;;2.47;;
19595;SDS011;9945;46.010;8.946;2024-03-29T05:30:33;3.67;;;1.97;;
19595;SDS011;9945;46.010;8.946;2024-03-29T05:33:02;1.77;;;1.67;;
19595;SDS011;9945;46.010;8.946;2024-03-29T05:35:29;2.00;;;1.90;;
19595;SDS011;9945;46.010;8.946;2024-03-29T05:37:56;2.20;;;2.00;;
19595;SDS011;9945;46.010;8.946;2024-03-29T05:40:23;2.77;;;2.47;;
19595;SDS011;9945;46.010;8.946;2024-03-29T05:42:52;2.30;;;2.20;;
19595;SDS011;9945;46.010;8.946;2024-03-29T05:45:23;2.77;;;2.57;;
19595;SDS011;9945;46.010;8.946;2024-03-29T05:47:51;2.50;;;2.40;;
19595;SDS011;9945;46.010;8.946;2024-03-29T05:50:21;3.00;;;2.80;;
19595;SDS011;9945;46.010;8.946;2024-03-29T05:52:48;4.63;;;2.73;;
19595;SDS011;9945;46.010;8.946;2024-03-29T05:55:15;3.00;;;2.70;;
19595;SDS011;9945;46.010;8.946;2024-03-29T05:57:43;2.77;;;2.57;;
19595;SDS011;9945;46.010;8.946;2024-03-29T06:00:10;2.80;;;2.70;;
19595;SDS011;9945;46.010;8.946;2024-03-29T06:02:39;3.13;;;2.83;;
19595;SDS011;9945;46.010;8.946;2024-03-29T06:05:08;3.13;;;2.93;;
19595;SDS011;9945;46.010;8.946;2024-03-29T06:07:36;2.73;;;2.53;;
19595;SDS011;9945;46.010;8.946;2024-03-29T06:10:03;3.43;;;3.10;;
19595;SDS011;9945;46.010;8.946;2024-03-29T06:12:33;4.03;;;2.80;;
19595;SDS011;9945;46.010;8.946;2024-03-29T06:15:00;3.40;;;3.20;;
19595;SDS011;9945;46.010;8.946;2024-03-29T06:17:44;3.57;;;3.27;;
19595;SDS011;9945;46.010;8.946;2024-03-29T06:20:12;3.20;;;3.00;;
19595;SDS011;9945;46.010;8.946;2024-03-29T06:22:40;3.10;;;2.90;;
19595;SDS011;9945;46.010;8.946;2024-03-29T06:25:07;3.23;;;2.90;;
19595;SDS011;9945;46.010;8.946;2024-03-29T06:27:35;3.33;;;2.50;;
19595;SDS011;9945;46.010;8.946;2024-03-29T06:30:04;2.00;;;1.90;;
19595;SDS011;9945;46.010;8.946;2024-03-29T06:32:32;1.90;;;1.80;;
19595;SDS011;9945;46.010;8.946;2024-03-29T06:34:59;1.80;;;1.70;;
19595;SDS011;9945;46.010;8.946;2024-03-29T06:37:25;2.50;;;2.00;;
19595;SDS011;9945;46.010;8.946;2024-03-29T06:39:54;2.10;;;1.80;;
19595;SDS011;9945;46.010;8.946;2024-03-29T06:42:21;1.90;;;1.77;;
19595;SDS011;9945;46.010;8.946;2024-03-29T06:44:49;1.87;;;1.77;;
19595;SDS011;9945;46.010;8.946;2024-03-29T06:47:17;1.70;;;1.60;;
19595;SDS011;9945;46.010;8.946;2024-03-29T06:49:44;4.77;;;1.70;;
19595;SDS011;9945;46.010;8.946;2024-03-29T06:52:12;2.30;;;1.80;;
19595;SDS011;9945;46.010;8.946;2024-03-29T06:54:39;1.80;;;1.70;;
19595;SDS011;9945;46.010;8.946;2024-03-29T06:57:07;2.20;;;2.00;;
19595;SDS011;9945;46.010;8.946;2024-03-29T06:59:37;2.17;;;2.07;;
19595;SDS011;9945;46.010;8.946;2024-03-29T07:02:04;1.90;;;1.80;;
19595;SDS011;9945;46.010;8.946;2024-03-29T07:04:31;2.20;;;2.10;;
19595;SDS011;9945;46.010;8.946;2024-03-29T07:06:58;2.20;;;2.00;;
19595;SDS011;9945;46.010;8.946;2024-03-29T07:09:26;1.90;;;1.80;;
19595;SDS011;9945;46.010;8.946;2024-03-29T07:11:52;1.87;;;1.40;;
19595;SDS011;9945;46.010;8.946;2024-03-29T07:14:21;2.03;;;1.77;;
19595;SDS011;9945;46.010;8.946;2024-03-29T07:16:48;1.53;;;1.53;;
19595;SDS011;9945;46.010;8.946;2024-03-29T07:19:15;1.60;;;1.60;;
19595;SDS011;9945;46.010;8.946;2024-03-29T07:21:44;2.30;;;1.70;;
19595;SDS011;9945;46.010;8.946;2024-03-29T07:24:11;1.60;;;1.50;;
19595;SDS011;9945;46.010;8.946;2024-03-29T07:26:38;1.90;;;1.80;;
19595;SDS011;9945;46.010;8.946;2024-03-29T07:29:06;1.70;;;1.57;;
19595;SDS011;9945;46.010;8.946;2024-03-29T07:31:34;1.87;;;1.47;;
19595;SDS011;9945;46.010;8.946;2024-03-29T07:34:01;3.17;;;1.40;;
19595;SDS011;9945;46.010;8.946;2024-03-29T07:36:28;1.30;;;1.30;;
19595;SDS011;9945;46.010;8.946;2024-03-29T07:39:00;1.10;;;1.10;;
19595;SDS011;9945;46.010;8.946;2024-03-29T07:41:29;1.10;;;1.10;;
19595;SDS011;9945;46.010;8.946;2024-03-29T07:43:56;0.90;;;0.90;;
19595;SDS011;9945;46.010;8.946;2024-03-29T07:46:27;1.20;;;1.20;;
19595;SDS011;9945;46.010;8.946;2024-03-29T07:48:56;1.10;;;1.10;;
19595;SDS011;9945;46.010;8.946;2024-03-29T07:51:23;1.80;;;1.43;;
19595;SDS011;9945;46.010;8.946;2024-03-29T07:53:50;1.40;;;1.30;;
19595;SDS011;9945;46.010;8.946;2024-03-29T07:56:17;2.67;;;1.50;;
19595;SDS011;9945;46.010;8.946;2024-03-29T07:58:49;2.60;;;1.30;;
19595;SDS011;9945;46.010;8.946;2024-03-29T08:01:17;3.03;;;1.03;;
19595;SDS011;9945;46.010;8.946;2024-03-29T08:03:45;1.37;;;1.27;;
19595;SDS011;9945;46.010;8.946;2024-03-29T08:06:13;0.90;;;0.90;;
19595;SDS011;9945;46.010;8.946;2024-03-29T08:08:43;1.40;;;1.33;;
19595;SDS011;9945;46.010;8.946;2024-03-29T08:11:10;1.10;;;1.00;;
19595;SDS011;9945;46.010;8.946;2024-03-29T08:13:38;1.93;;;1.20;;
19595;SDS011;9945;46.010;8.946;2024-03-29T08:16:05;1.77;;;1.33;;
19595;SDS011;9945;46.010;8.946;2024-03-29T08:18:32;1.40;;;1.30;;
19595;SDS011;9945;46.010;8.946;2024-03-29T08:20:59;1.07;;;1.00;;
19595;SDS011;9945;46.010;8.946;2024-03-29T08:23:28;1.30;;;1.20;;
19595;SDS011;9945;46.010;8.946;2024-03-29T08:25:56;1.00;;;1.00;;
19595;SDS011;9945;46.010;8.946;2024-03-29T08:28:24;1.40;;;1.30;;
19595;SDS011;9945;46.010;8.946;2024-03-29T08:30:57;1.13;;;1.13;;
19595;SDS011;9945;46.010;8.946;2024-03-29T08:33:25;1.30;;;1.20;;
19595;SDS011;9945;46.010;8.946;2024-03-29T08:35:52;1.23;;;1.10;;
19595;SDS011;9945;46.010;8.946;2024-03-29T08:38:19;2.07;;;1.17;;
19595;SDS011;9945;46.010;8.946;2024-03-29T08:40:48;1.00;;;1.00;;
19595;SDS011;9945;46.010;8.946;2024-03-29T08:43:15;1.57;;;1.43;;
19595;SDS011;9945;46.010;8.946;2024-03-29T08:45:43;1.20;;;1.13;;
19595;SDS011;9945;46.010;8.946;2024-03-29T08:48:10;1.20;;;1.20;;
19595;SDS011;9945;46.010;8.946;2024-03-29T08:50:37;1.10;;;1.10;;
19595;SDS011;9945;46.010;8.946;2024-03-29T08:53:04;1.10;;;1.10;;
19595;SDS011;9945;46.010;8.946;2024-03-29T08:55:31;1.70;;;1.60;;
19595;SDS011;9945;46.010;8.946;2024-03-29T08:58:00;1.63;;;1.53;;
19595;SDS011;9945;46.010;8.946;2024-03-29T09:00:28;2.67;;;2.30;;
19595;SDS011;9945;46.010;8.946;2024-03-29T09:02:55;2.30;;;2.10;;
19595;SDS011;9945;46.010;8.946;2024-03-29T09:05:23;2.27;;;2.03;;
19595;SDS011;9945;46.010;8.946;2024-03-29T09:07:50;2.30;;;2.13;;
19595;SDS011;9945;46.010;8.946;2024-03-29T09:10:17;3.43;;;2.27;;
19595;SDS011;9945;46.010;8.946;2024-03-29T09:12:44;2.40;;;2.10;;
19595;SDS011;9945;46.010;8.946;2024-03-29T09:15:12;2.63;;;2.53;;
19595;SDS011;9945;46.010;8.946;2024-03-29T09:17:40;4.13;;;2.00;;
19595;SDS011;9945;46.010;8.946;2024-03-29T09:20:08;7.13;;;1.90;;
19595;SDS011;9945;46.010;8.946;2024-03-29T09:22:35;1.60;;;1.50;;
19595;SDS011;9945;46.010;8.946;2024-03-29T09:25:03;1.23;;;1.23;;
19595;SDS011;9945;46.010;8.946;2024-03-29T09:27:31;2.73;;;1.10;;
19595;SDS011;9945;46.010;8.946;2024-03-29T09:29:59;1.73;;;1.63;;
19595;SDS011;9945;46.010;8.946;2024-03-29T09:32:27;1.10;;;1.10;;
19595;SDS011;9945;46.010;8.946;2024-03-29T09:34:54;1.33;;;1.23;;
19595;SDS011;9945;46.010;8.946;2024-03-29T09:37:21;3.00;;;0.90;;
19595;SDS011;9945;46.010;8.946;2024-03-29T09:39:49;1.03;;;1.03;;
19595;SDS011;9945;46.010;8.946;2024-03-29T09:42:16;1.20;;;1.20;;
19595;SDS011;9945;46.010;8.946;2024-03-29T09:44:44;1.17;;;1.17;;
19595;SDS011;9945;46.010;8.946;2024-03-29T09:47:14;1.67;;;1.30;;
19595;SDS011;9945;46.010;8.946;2024-03-29T09:49:45;1.47;;;1.33;;
19595;SDS011;9945;46.010;8.946;2024-03-29T09:52:18;1.70;;;1.60;;
19595;SDS011;9945;46.010;8.946;2024-03-29T09:54:46;1.60;;;1.50;;
19595;SDS011;9945;46.010;8.946;2024-03-29T09:57:13;1.57;;;1.30;;
19595;SDS011;9945;46.010;8.946;2024-03-29T09:59:39;1.10;;;1.10;;
19595;SDS011;9945;46.010;8.946;2024-03-29T10:02:10;1.10;;;1.10;;
19595;SDS011;9945;46.010;8.946;2024-03-29T10:04:42;1.17;;;1.17;;
19595;SDS011;9945;46.010;8.946;2024-03-29T10:07:10;1.20;;;1.20;;
19595;SDS011;9945;46.010;8.946;2024-03-29T10:09:40;1.10;;;1.10;;
19595;SDS011;9945;46.010;8.946;2024-03-29T10:12:08;1.60;;;1.50;;
19595;SDS011;9945;46.010;8.946;2024-03-29T10:14:42;1.43;;;1.33;;
19595;SDS011;9945;46.010;8.946;2024-03-29T10:17:14;1.83;;;1.10;;
19595;SDS011;9945;46.010;8.946;2024-03-29T10:19:43;1.23;;;1.23;;
19595;SDS011;9945;46.010;8.946;2024-03-29T10:22:11;2.07;;;1.47;;
19595;SDS011;9945;46.010;8.946;2024-03-29T10:24:38;1.67;;;1.53;;
19595;SDS011;9945;46.010;8.946;2024-03-29T10:27:04;1.60;;;1.50;;
19595;SDS011;9945;46.010;8.946;2024-03-29T10:29:31;1.93;;;1.63;;
19595;SDS011;9945;46.010;8.946;2024-03-29T10:31:59;1.50;;;1.40;;
19595;SDS011;9945;46.010;8.946;2024-03-29T10:34:27;2.53;;;1.70;;
19595;SDS011;9945;46.010;8.946;2024-03-29T10:36:58;2.27;;;1.47;;
19595;SDS011;9945;46.010;8.946;2024-03-29T10:39:28;2.03;;;1.40;;
19595;SDS011;9945;46.010;8.946;2024-03-29T10:41:55;1.67;;;1.40;;
19595;SDS011;9945;46.010;8.946;2024-03-29T10:44:23;2.57;;;1.53;;
19595;SDS011;9945;46.010;8.946;2024-03-29T10:46:51;1.70;;;1.60;;
19595;SDS011;9945;46.010;8.946;2024-03-29T10:49:19;1.70;;;1.60;;
19595;SDS011;9945;46.010;8.946;2024-03-29T10:51:48;2.20;;;2.00;;
19595;SDS011;9945;46.010;8.946;2024-03-29T10:54:17;2.00;;;1.90;;
19595;SDS011;9945;46.010;8.946;2024-03-29T10:56:46;1.23;;;1.23;;
19595;SDS011;9945;46.010;8.946;2024-03-29T10:59:16;1.30;;;1.30;;
19595;SDS011;9945;46.010;8.946;2024-03-29T11:01:49;1.20;;;1.20;;
19595;SDS011;9945;46.010;8.946;2024-03-29T11:04:22;1.10;;;1.10;;
19595;SDS011;9945;46.010;8.946;2024-03-29T11:06:54;1.63;;;1.40;;
19595;SDS011;9945;46.010;8.946;2024-03-29T11:09:23;1.53;;;1.43;;
19595;SDS011;9945;46.010;8.946;2024-03-29T11:11:57;1.17;;;1.17;;
19595;SDS011;9945;46.010;8.946;2024-03-29T11:14:31;1.03;;;1.03;;
19595;SDS011;9945;46.010;8.946;2024-03-29T11:17:02;0.97;;;0.97;;
19595;SDS011;9945;46.010;8.946;2024-03-29T11:19:30;1.07;;;1.00;;
19595;SDS011;9945;46.010;8.946;2024-03-29T11:21:57;0.97;;;0.97;;
19595;SDS011;9945;46.010;8.946;2024-03-29T11:24:26;1.30;;;1.30;;
19595;SDS011;9945;46.010;8.946;2024-03-29T11:26:54;1.30;;;1.20;;
19595;SDS011;9945;46.010;8.946;2024-03-29T11:29:22;1.50;;;1.40;;
19595;SDS011;9945;46.010;8.946;2024-03-29T11:31:55;1.63;;;1.53;;
19595;SDS011;9945;46.010;8.946;2024-03-29T11:34:24;1.60;;;1.50;;
19595;SDS011;9945;46.010;8.946;2024-03-29T11:36:50;1.20;;;1.20;;
19595;SDS011;9945;46.010;8.946;2024-03-29T11:39:20;1.73;;;1.63;;
19595;SDS011;9945;46.010;8.946;2024-03-29T11:41:48;1.67;;;1.57;;
19595;SDS011;9945;46.010;8.946;2024-03-29T11:44:16;1.33;;;1.23;;
19595;SDS011;9945;46.010;8.946;2024-03-29T11:46:44;1.40;;;1.30;;
19595;SDS011;9945;46.010;8.946;2024-03-29T11:49:13;1.60;;;1.50;;
19595;SDS011;9945;46.010;8.946;2024-03-29T11:51:40;1.60;;;1.50;;
19595;SDS011;9945;46.010;8.946;2024-03-29T11:54:08;0.93;;;0.93;;
19595;SDS011;9945;46.010;8.946;2024-03-29T11:56:36;1.20;;;1.10;;
19595;SDS011;9945;46.010;8.946;2024-03-29T11:59:03;1.77;;;1.20;;
19595;SDS011;9945;46.010;8.946;2024-03-29T12:01:30;1.23;;;1.13;;
19595;SDS011;9945;46.010;8.946;2024-03-29T12:04:00;1.17;;;1.17;;
19595;SDS011;9945;46.010;8.946;2024-03-29T12:06:27;0.93;;;0.93;;
19595;SDS011;9945;46.010;8.946;2024-03-29T12:08:54;1.17;;;1.07;;
19595;SDS011;9945;46.010;8.946;2024-03-29T12:11:22;1.50;;;1.43;;
19595;SDS011;9945;46.010;8.946;2024-03-29T12:13:50;1.70;;;1.60;;
19595;SDS011;9945;46.010;8.946;2024-03-29T12:16:16;1.50;;;1.40;;
19595;SDS011;9945;46.010;8.946;2024-03-29T12:18:46;1.50;;;1.40;;
19595;SDS011;9945;46.010;8.946;2024-03-29T12:21:15;1.10;;;1.10;;
19595;SDS011;9945;46.010;8.946;2024-03-29T12:23:46;0.93;;;0.93;;
19595;SDS011;9945;46.010;8.946;2024-03-29T12:26:14;0.70;;;0.70;;
19595;SDS011;9945;46.010;8.946;2024-03-29T12:28:47;0.90;;;0.90;;
19595;SDS011;9945;46.010;8.946;2024-03-29T12:31:15;1.00;;;1.00;;
19595;SDS011;9945;46.010;8.946;2024-03-29T12:33:50;1.30;;;1.30;;
19595;SDS011;9945;46.010;8.946;2024-03-29T12:36:22;1.27;;;1.10;;
19595;SDS011;9945;46.010;8.946;2024-03-29T12:38:53;0.83;;;0.83;;
19595;SDS011;9945;46.010;8.946;2024-03-29T12:41:23;2.40;;;1.00;;
19595;SDS011;9945;46.010;8.946;2024-03-29T12:43:50;1.37;;;1.30;;
19595;SDS011;9945;46.010;8.946;2024-03-29T12:46:17;2.00;;;0.97;;
19595;SDS011;9945;46.010;8.946;2024-03-29T12:48:44;1.23;;;1.17;;
19595;SDS011;9945;46.010;8.946;2024-03-29T12:51:14;1.37;;;1.30;;
19595;SDS011;9945;46.010;8.946;2024-03-29T12:53:45;1.30;;;1.30;;
19595;SDS011;9945;46.010;8.946;2024-03-29T12:56:14;1.30;;;1.30;;
19595;SDS011;9945;46.010;8.946;2024-03-29T12:58:41;2.13;;;1.20;;
19595;SDS011;9945;46.010;8.946;2024-03-29T13:01:08;0.80;;;0.80;;
19595;SDS011;9945;46.010;8.946;2024-03-29T13:03:36;1.23;;;0.80;;
19595;SDS011;9945;46.010;8.946;2024-03-29T13:06:06;1.13;;;1.03;;
19595;SDS011;9945;46.010;8.946;2024-03-29T13:08:34;2.07;;;1.00;;
19595;SDS011;9945;46.010;8.946;2024-03-29T13:11:01;4.13;;;0.93;;
19595;SDS011;9945;46.010;8.946;2024-03-29T13:13:28;1.10;;;1.10;;
19595;SDS011;9945;46.010;8.946;2024-03-29T13:15:55;1.00;;;1.00;;
19595;SDS011;9945;46.010;8.946;2024-03-29T13:18:22;1.27;;;0.60;;
19595;SDS011;9945;46.010;8.946;2024-03-29T13:20:49;1.00;;;1.00;;
19595;SDS011;9945;46.010;8.946;2024-03-29T13:23:15;0.90;;;0.90;;
19595;SDS011;9945;46.010;8.946;2024-03-29T13:25:44;1.07;;;1.03;;
19595;SDS011;9945;46.010;8.946;2024-03-29T13:28:11;0.90;;;0.90;;
19595;SDS011;9945;46.010;8.946;2024-03-29T13:30:38;1.20;;;1.20;;
19595;SDS011;9945;46.010;8.946;2024-03-29T13:33:08;1.80;;;1.17;;
19595;SDS011;9945;46.010;8.946;2024-03-29T13:35:36;1.10;;;1.10;;
19595;SDS011;9945;46.010;8.946;2024-03-29T13:38:03;0.70;;;0.70;;
19595;SDS011;9945;46.010;8.946;2024-03-29T13:40:30;1.43;;;1.23;;
19595;SDS011;9945;46.010;8.946;2024-03-29T13:42:58;1.00;;;1.00;;
19595;SDS011;9945;46.010;8.946;2024-03-29T13:45:25;1.57;;;1.47;;
19595;SDS011;9945;46.010;8.946;2024-03-29T13:47:53;1.53;;;1.40;;
19595;SDS011;9945;46.010;8.946;2024-03-29T13:50:20;1.70;;;1.60;;
19595;SDS011;9945;46.010;8.946;2024-03-29T13:52:47;1.90;;;1.80;;
19595;SDS011;9945;46.010;8.946;2024-03-29T13:55:15;2.87;;;2.10;;
19595;SDS011;9945;46.010;8.946;2024-03-29T13:57:42;2.00;;;1.90;;
19595;SDS011;9945;46.010;8.946;2024-03-29T14:00:11;2.10;;;2.00;;
19595;SDS011;9945;46.010;8.946;2024-03-29T14:02:42;1.90;;;1.80;;
19595;SDS011;9945;46.010;8.946;2024-03-29T14:05:08;2.67;;;2.23;;
19595;SDS011;9945;46.010;8.946;2024-03-29T14:07:36;1.70;;;1.63;;
19595;SDS011;9945;46.010;8.946;2024-03-29T14:10:03;1.70;;;1.60;;
19595;SDS011;9945;46.010;8.946;2024-03-29T14:12:31;1.80;;;1.70;;
19595;SDS011;9945;46.010;8.946;2024-03-29T14:14:58;1.60;;;1.50;;
19595;SDS011;9945;46.010;8.946;2024-03-29T14:17:27;1.73;;;1.63;;
19595;SDS011;9945;46.010;8.946;2024-03-29T14:19:53;1.73;;;1.63;;
19595;SDS011;9945;46.010;8.946;2024-03-29T14:22:20;1.80;;;1.70;;
19595;SDS011;9945;46.010;8.946;2024-03-29T14:24:48;1.70;;;1.70;;
19595;SDS011;9945;46.010;8.946;2024-03-29T14:27:15;1.80;;;1.80;;
19595;SDS011;9945;46.010;8.946;2024-03-29T14:29:42;1.63;;;1.60;;
19595;SDS011;9945;46.010;8.946;2024-03-29T14:32:11;1.63;;;1.60;;
19595;SDS011;9945;46.010;8.946;2024-03-29T14:34:39;1.80;;;1.70;;
19595;SDS011;9945;46.010;8.946;2024-03-29T14:37:11;1.50;;;1.40;;
19595;SDS011;9945;46.010;8.946;2024-03-29T14:39:41;1.60;;;1.50;;
19595;SDS011;9945;46.010;8.946;2024-03-29T14:42:09;1.10;;;1.10;;
19595;SDS011;9945;46.010;8.946;2024-03-29T14:44:38;1.30;;;1.20;;
19595;SDS011;9945;46.010;8.946;2024-03-29T14:47:06;1.33;;;1.33;;
19595;SDS011;9945;46.010;8.946;2024-03-29T14:49:32;1.77;;;1.67;;
19595;SDS011;9945;46.010;8.946;2024-03-29T14:52:01;1.80;;;1.70;;
19595;SDS011;9945;46.010;8.946;2024-03-29T14:54:28;1.50;;;1.50;;
19595;SDS011;9945;46.010;8.946;2024-03-29T14:56:55;1.87;;;1.77;;
19595;SDS011;9945;46.010;8.946;2024-03-29T14:59:22;3.33;;;1.50;;
19595;SDS011;9945;46.010;8.946;2024-03-29T15:01:48;1.43;;;1.33;;
19595;SDS011;9945;46.010;8.946;2024-03-29T15:04:15;1.53;;;1.50;;